createdAt,value
2022-11-10T00:00:19.349Z,99542.00
2022-11-10T00:01:19.381Z,99543.00
2022-11-10T00:02:19.400Z,99539.00
2022-11-10T00:03:19.900Z,99539.00
2022-11-10T00:04:19.479Z,99541.00
2022-11-10T00:05:19.483Z,99545.00
2022-11-10T00:06:19.488Z,99546.00
2022-11-10T00:07:19.437Z,99548.00
2022-11-10T00:08:19.458Z,99545.00
2022-11-10T00:09:19.487Z,99545.00
2022-11-10T00:10:19.497Z,99547.00
2022-11-10T00:11:19.541Z,99545.00
2022-11-10T00:12:19.510Z,99549.00
2022-11-10T00:13:19.945Z,99547.00
2022-11-10T00:14:19.547Z,99548.00
2022-11-10T00:15:19.549Z,99551.00
2022-11-10T00:16:19.581Z,99548.00
2022-11-10T00:17:19.641Z,99552.00
2022-11-10T00:18:19.615Z,99557.00
2022-11-10T00:19:19.632Z,99560.00
2022-11-10T00:20:19.656Z,99554.00
2022-11-10T00:21:19.705Z,99555.00
2022-11-10T00:22:19.708Z,99554.00
2022-11-10T00:23:20.017Z,99551.00
2022-11-10T00:24:19.760Z,99557.00
2022-11-10T00:25:19.742Z,99554.00
2022-11-10T00:26:19.778Z,99553.00
2022-11-10T00:27:19.808Z,99555.00
2022-11-10T00:28:19.811Z,99555.00
2022-11-10T00:29:19.839Z,99554.00
2022-11-10T00:30:19.873Z,99559.00
2022-11-10T00:31:19.883Z,99560.00
2022-11-10T00:32:19.897Z,99561.00
2022-11-10T00:33:20.259Z,99564.00
2022-11-10T00:34:19.915Z,99558.00
2022-11-10T00:35:19.950Z,99564.00
2022-11-10T00:36:19.954Z,99566.00
2022-11-10T00:37:20.018Z,99564.00
2022-11-10T00:38:19.984Z,99565.00
2022-11-10T00:39:20.001Z,99563.00
2022-11-10T00:40:20.021Z,99566.00
2022-11-10T00:41:20.053Z,99567.00
2022-11-10T00:42:20.027Z,99567.00
2022-11-10T00:43:25.312Z,99566.00
2022-11-10T00:44:20.055Z,99567.00
2022-11-10T00:45:20.078Z,99569.00
2022-11-10T00:46:20.117Z,99567.00
2022-11-10T00:47:20.081Z,99572.00
2022-11-10T00:48:20.099Z,99572.00
2022-11-10T00:49:20.066Z,99572.00
2022-11-10T00:50:20.072Z,99571.00
2022-11-10T00:51:20.097Z,99574.00
2022-11-10T00:52:20.109Z,99573.00
2022-11-10T00:53:20.538Z,99573.00
2022-11-10T00:54:20.147Z,99576.00
2022-11-10T00:55:20.161Z,99579.00
2022-11-10T00:56:20.188Z,99582.00
2022-11-10T00:57:20.218Z,99578.00
2022-11-10T00:58:20.244Z,99581.00
2022-11-10T00:59:20.268Z,99583.00
2022-11-10T01:00:20.270Z,99582.00
2022-11-10T01:01:20.384Z,99582.00
2022-11-10T01:02:20.350Z,99579.00
2022-11-10T01:03:20.733Z,99583.00
2022-11-10T01:04:20.324Z,99587.00
2022-11-10T01:05:20.364Z,99586.00
2022-11-10T01:06:20.322Z,99590.00
2022-11-10T01:07:20.340Z,99592.00
2022-11-10T01:08:20.356Z,99597.00
2022-11-10T01:09:20.398Z,99597.00
2022-11-10T01:10:20.405Z,99601.00
2022-11-10T01:11:20.429Z,99601.00
2022-11-10T01:12:20.444Z,99600.00
2022-11-10T01:13:20.919Z,99603.00
2022-11-10T01:14:20.473Z,99602.00
2022-11-10T01:15:24.487Z,99609.00
2022-11-10T01:16:20.489Z,99610.00
2022-11-10T01:17:20.478Z,99613.00
2022-11-10T01:18:20.485Z,99616.00
2022-11-10T01:19:20.493Z,99611.00
2022-11-10T01:20:20.501Z,99617.00
2022-11-10T01:21:20.526Z,99618.00
2022-11-10T01:22:20.547Z,99619.00
2022-11-10T01:23:20.999Z,99619.00
2022-11-10T01:24:20.568Z,99622.00
2022-11-10T01:25:20.599Z,99623.00
2022-11-10T01:26:20.606Z,99624.00
2022-11-10T01:27:20.647Z,99625.00
2022-11-10T01:28:20.617Z,99623.00
2022-11-10T01:29:20.637Z,99627.00
2022-11-10T01:30:20.618Z,99620.00
2022-11-10T01:31:20.639Z,99629.00
2022-11-10T01:32:20.666Z,99633.00
2022-11-10T01:33:21.138Z,99633.00
2022-11-10T01:34:20.708Z,99639.00
2022-11-10T01:35:20.719Z,99641.00
2022-11-10T01:36:20.798Z,99641.00
2022-11-10T01:37:20.755Z,99647.00
2022-11-10T01:38:20.786Z,99647.00
2022-11-10T01:39:20.761Z,99643.00
2022-11-10T01:40:20.786Z,99649.00
2022-11-10T01:41:20.781Z,99651.00
2022-11-10T01:42:20.740Z,99653.00
2022-11-10T01:43:21.123Z,99649.00
2022-11-10T01:44:20.788Z,99656.00
2022-11-10T01:45:20.796Z,99660.00
2022-11-10T01:46:20.957Z,99658.00
2022-11-10T01:47:20.819Z,99660.00
2022-11-10T01:48:20.849Z,99663.00
2022-11-10T01:49:20.875Z,99666.00
2022-11-10T01:50:20.890Z,99668.00
2022-11-10T01:51:20.918Z,99666.00
2022-11-10T01:52:20.995Z,99666.00
2022-11-10T01:53:21.327Z,99666.00
2022-11-10T01:54:20.976Z,99670.00
2022-11-10T01:55:20.988Z,99668.00
2022-11-10T01:56:21.016Z,99673.00
2022-11-10T01:57:21.062Z,99672.00
2022-11-10T01:58:21.054Z,99672.00
2022-11-10T01:59:21.100Z,99674.00
2022-11-10T02:00:21.092Z,99676.00
2022-11-10T02:01:21.185Z,99674.00
2022-11-10T02:02:21.127Z,99674.00
2022-11-10T02:03:21.445Z,99678.00
2022-11-10T02:04:21.146Z,99679.00
2022-11-10T02:05:21.160Z,99680.00
2022-11-10T02:06:21.182Z,99672.00
2022-11-10T02:07:21.219Z,99676.00
2022-11-10T02:08:21.242Z,99680.00
2022-11-10T02:09:21.246Z,99681.00
2022-11-10T02:10:21.278Z,99683.00
2022-11-10T02:11:21.331Z,99683.00
2022-11-10T02:12:21.290Z,99687.00
2022-11-10T02:13:21.697Z,99687.00
2022-11-10T02:14:21.314Z,99689.00
2022-11-10T02:15:21.339Z,99689.00
2022-11-10T02:16:21.349Z,99688.00
2022-11-10T02:17:21.606Z,99688.00
2022-11-10T02:18:21.377Z,99686.00
2022-11-10T02:19:21.415Z,99690.00
2022-11-10T02:20:21.425Z,99687.00
2022-11-10T02:21:21.374Z,99689.00
2022-11-10T02:22:21.379Z,99691.00
2022-11-10T02:23:21.836Z,99692.00
2022-11-10T02:24:21.408Z,99694.00
2022-11-10T02:25:21.372Z,99695.00
2022-11-10T02:26:21.406Z,99702.00
2022-11-10T02:27:21.423Z,99696.00
2022-11-10T02:28:21.412Z,99694.00
2022-11-10T02:29:21.443Z,99699.00
2022-11-10T02:30:26.511Z,99695.00
2022-11-10T02:31:21.413Z,99699.00
2022-11-10T02:32:21.418Z,99705.00
2022-11-10T02:33:21.897Z,99699.00
2022-11-10T02:34:21.485Z,99700.00
2022-11-10T02:35:21.516Z,99702.00
2022-11-10T02:36:21.500Z,99704.00
2022-11-10T02:37:21.531Z,99704.00
2022-11-10T02:38:21.550Z,99707.00
2022-11-10T02:39:21.610Z,99704.00
2022-11-10T02:40:21.577Z,99709.00
2022-11-10T02:41:21.593Z,99713.00
2022-11-10T02:42:21.628Z,99713.00
2022-11-10T02:43:22.052Z,99710.00
2022-11-10T02:44:21.660Z,99711.00
2022-11-10T02:45:21.684Z,99714.00
2022-11-10T02:46:21.688Z,99713.00
2022-11-10T02:47:21.710Z,99715.00
2022-11-10T02:48:21.742Z,99718.00
2022-11-10T02:49:21.777Z,99714.00
2022-11-10T02:50:21.780Z,99717.00
2022-11-10T02:51:21.800Z,99718.00
2022-11-10T02:52:21.826Z,99720.00
2022-11-10T02:53:22.208Z,99721.00
2022-11-10T02:54:21.866Z,99725.00
2022-11-10T02:55:21.892Z,99723.00
2022-11-10T02:56:21.912Z,99723.00
2022-11-10T02:57:21.889Z,99727.00
2022-11-10T02:58:21.893Z,99730.00
2022-11-10T02:59:21.917Z,99727.00
2022-11-10T03:00:21.932Z,99725.00
2022-11-10T03:01:22.093Z,99727.00
2022-11-10T03:02:21.963Z,99728.00
2022-11-10T03:03:22.400Z,99732.00
2022-11-10T03:04:21.982Z,99730.00
2022-11-10T03:05:21.985Z,99732.00
2022-11-10T03:06:21.990Z,99733.00
2022-11-10T03:07:21.967Z,99734.00
2022-11-10T03:08:21.991Z,99734.00
2022-11-10T03:09:22.025Z,99737.00
2022-11-10T03:10:22.271Z,99737.00
2022-11-10T03:11:22.045Z,99737.00
2022-11-10T03:12:22.062Z,99733.00
2022-11-10T03:13:22.377Z,99735.00
2022-11-10T03:14:22.102Z,99732.00
2022-11-10T03:15:22.148Z,99737.00
2022-11-10T03:16:22.107Z,99740.00
2022-11-10T03:17:22.156Z,99738.00
2022-11-10T03:18:22.180Z,99737.00
2022-11-10T03:19:22.189Z,99734.00
2022-11-10T03:20:22.210Z,99736.00
2022-11-10T03:21:22.215Z,99736.00
2022-11-10T03:22:22.238Z,99735.00
2022-11-10T03:23:22.644Z,99736.00
2022-11-10T03:24:22.269Z,99738.00
2022-11-10T03:25:22.304Z,99741.00
2022-11-10T03:26:22.288Z,99741.00
2022-11-10T03:27:22.314Z,99743.00
2022-11-10T03:28:22.289Z,99753.00
2022-11-10T03:29:22.301Z,99754.00
2022-11-10T03:30:22.306Z,99754.00
2022-11-10T03:31:22.328Z,99754.00
2022-11-10T03:32:22.303Z,99754.00
2022-11-10T03:33:22.624Z,99754.00
2022-11-10T03:34:22.308Z,99756.00
2022-11-10T03:35:22.331Z,99751.00
2022-11-10T03:36:22.357Z,99751.00
2022-11-10T03:37:22.327Z,99755.00
2022-11-10T03:38:22.349Z,99759.00
2022-11-10T03:39:22.362Z,99756.00
2022-11-10T03:40:22.385Z,99756.00
2022-11-10T03:41:22.425Z,99761.00
2022-11-10T03:42:22.430Z,99764.00
2022-11-10T03:43:22.936Z,99761.00
2022-11-10T03:44:22.459Z,99764.00
2022-11-10T03:45:22.483Z,99764.00
2022-11-10T03:46:22.524Z,99769.00
2022-11-10T03:47:22.498Z,99770.00
2022-11-10T03:48:22.504Z,99772.00
2022-11-10T03:49:22.542Z,99773.00
2022-11-10T03:50:22.543Z,99775.00
2022-11-10T03:51:22.580Z,99778.00
2022-11-10T03:52:22.590Z,99778.00
2022-11-10T03:53:23.010Z,99778.00
2022-11-10T03:54:22.550Z,99783.00
2022-11-10T03:55:22.580Z,99782.00
2022-11-10T03:56:22.589Z,99775.00
2022-11-10T03:57:22.625Z,99781.00
2022-11-10T03:58:22.632Z,99783.00
2022-11-10T03:59:22.670Z,99781.00
2022-11-10T04:00:22.632Z,99779.00
2022-11-10T04:01:22.776Z,99782.00
2022-11-10T04:02:22.703Z,99784.00
2022-11-10T04:03:23.068Z,99783.00
2022-11-10T04:04:22.750Z,99786.00
2022-11-10T04:05:22.801Z,99786.00
2022-11-10T04:06:22.783Z,99788.00
2022-11-10T04:07:22.753Z,99788.00
2022-11-10T04:08:22.767Z,99791.00
2022-11-10T04:09:22.787Z,99790.00
2022-11-10T04:10:22.804Z,99794.00
2022-11-10T04:11:22.811Z,99797.00
2022-11-10T04:12:25.007Z,99797.00
2022-11-10T04:13:23.363Z,99801.00
2022-11-10T04:14:22.877Z,99797.00
2022-11-10T04:15:22.898Z,99799.00
2022-11-10T04:16:22.911Z,99801.00
2022-11-10T04:17:22.911Z,99805.00
2022-11-10T04:18:22.922Z,99795.00
2022-11-10T04:19:22.948Z,99801.00
2022-11-10T04:20:22.994Z,99801.00
2022-11-10T04:21:22.989Z,99801.00
2022-11-10T04:22:22.986Z,99800.00
2022-11-10T04:23:23.352Z,99800.00
2022-11-10T04:24:23.017Z,99804.00
2022-11-10T04:25:23.069Z,99802.00
2022-11-10T04:26:23.026Z,99793.00
2022-11-10T04:27:23.053Z,99794.00
2022-11-10T04:28:23.094Z,99791.00
2022-11-10T04:29:23.062Z,99800.00
2022-11-10T04:30:23.084Z,99806.00
2022-11-10T04:31:23.114Z,99807.00
2022-11-10T04:32:23.139Z,99812.00
2022-11-10T04:33:23.580Z,99808.00
2022-11-10T04:34:23.151Z,99812.00
2022-11-10T04:35:23.166Z,99813.00
2022-11-10T04:36:23.191Z,99814.00
2022-11-10T04:37:23.226Z,99813.00
2022-11-10T04:38:23.196Z,99820.00
2022-11-10T04:39:23.230Z,99824.00
2022-11-10T04:40:23.247Z,99826.00
2022-11-10T04:41:23.266Z,99825.00
2022-11-10T04:42:23.281Z,99826.00
2022-11-10T04:43:23.651Z,99830.00
2022-11-10T04:44:23.388Z,99835.00
2022-11-10T04:45:23.363Z,99834.00
2022-11-10T04:46:23.391Z,99834.00
2022-11-10T04:47:23.418Z,99840.00
2022-11-10T04:48:23.429Z,99844.00
2022-11-10T04:49:23.464Z,99850.00
2022-11-10T04:50:23.459Z,99854.00
2022-11-10T04:51:23.502Z,99858.00
2022-11-10T04:52:23.487Z,99862.00
2022-11-10T04:53:23.860Z,99862.00
2022-11-10T04:54:23.540Z,99859.00
2022-11-10T04:55:23.519Z,99862.00
2022-11-10T04:56:23.542Z,99861.00
2022-11-10T04:57:23.566Z,99863.00
2022-11-10T04:58:23.578Z,99863.00
2022-11-10T04:59:23.608Z,99859.00
2022-11-10T05:00:23.642Z,99864.00
2022-11-10T05:01:23.724Z,99867.00
2022-11-10T05:02:23.663Z,99870.00
2022-11-10T05:03:23.962Z,99872.00
2022-11-10T05:04:23.664Z,99873.00
2022-11-10T05:05:23.665Z,99873.00
2022-11-10T05:06:23.690Z,99866.00
2022-11-10T05:07:23.714Z,99869.00
2022-11-10T05:08:23.751Z,99862.00
2022-11-10T05:09:23.737Z,99862.00
2022-11-10T05:10:23.732Z,99860.00
2022-11-10T05:11:23.785Z,99865.00
2022-11-10T05:12:23.750Z,99865.00
2022-11-10T05:13:24.185Z,99864.00
2022-11-10T05:14:23.772Z,99865.00
2022-11-10T05:15:23.784Z,99869.00
2022-11-10T05:16:23.829Z,99872.00
2022-11-10T05:17:23.845Z,99870.00
2022-11-10T05:18:23.869Z,99872.00
2022-11-10T05:19:23.880Z,99875.00
2022-11-10T05:20:23.868Z,99879.00
2022-11-10T05:21:23.898Z,99880.00
2022-11-10T05:22:23.925Z,99880.00
2022-11-10T05:23:24.356Z,99879.00
2022-11-10T05:24:23.977Z,99876.00
2022-11-10T05:25:24.005Z,99882.00
2022-11-10T05:26:24.033Z,99886.00
2022-11-10T05:27:23.997Z,99883.00
2022-11-10T05:28:24.016Z,99884.00
2022-11-10T05:29:24.049Z,99884.00
2022-11-10T05:30:24.068Z,99881.00
2022-11-10T05:31:24.086Z,99884.00
2022-11-10T05:32:24.114Z,99883.00
2022-11-10T05:33:24.609Z,99890.00
2022-11-10T05:34:24.116Z,99888.00
2022-11-10T05:35:24.136Z,99889.00
2022-11-10T05:36:24.148Z,99889.00
2022-11-10T05:37:24.169Z,99897.00
2022-11-10T05:38:24.200Z,99895.00
2022-11-10T05:39:24.218Z,99907.00
2022-11-10T05:40:24.246Z,99907.00
2022-11-10T05:41:24.302Z,99911.00
2022-11-10T05:42:24.260Z,99914.00
2022-11-10T05:43:24.677Z,99919.00
2022-11-10T05:44:24.291Z,99919.00
2022-11-10T05:45:24.317Z,99917.00
2022-11-10T05:46:24.346Z,99918.00
2022-11-10T05:47:24.378Z,99920.00
2022-11-10T05:48:24.389Z,99921.00
2022-11-10T05:49:24.411Z,99920.00
2022-11-10T05:50:24.444Z,99921.00
2022-11-10T05:51:24.448Z,99920.00
2022-11-10T05:52:24.462Z,99921.00
2022-11-10T05:53:24.801Z,99923.00
2022-11-10T05:54:24.489Z,99927.00
2022-11-10T05:55:24.484Z,99933.00
2022-11-10T05:56:24.502Z,99936.00
2022-11-10T05:57:24.549Z,99936.00
2022-11-10T05:58:24.555Z,99937.00
2022-11-10T05:59:24.575Z,99942.00
2022-11-10T06:01:50.540Z,99946.00
2022-11-10T06:02:50.521Z,99947.00
2022-11-10T06:03:50.615Z,99949.00
2022-11-10T06:04:50.569Z,99945.00
2022-11-10T06:05:50.568Z,99948.00
2022-11-10T06:06:50.662Z,99948.00
2022-11-10T06:07:50.646Z,99951.00
2022-11-10T06:08:50.623Z,99957.00
2022-11-10T06:09:50.605Z,99962.00
2022-11-10T06:10:50.621Z,99965.00
2022-11-10T06:11:50.642Z,99971.00
2022-11-10T06:12:50.643Z,99975.00
2022-11-10T06:13:50.662Z,99977.00
2022-11-10T06:14:50.639Z,99981.00
2022-11-10T06:15:50.853Z,99986.00
2022-11-10T06:16:50.697Z,99987.00
2022-11-10T06:17:50.679Z,99986.00
2022-11-10T06:18:50.699Z,99988.00
2022-11-10T06:19:50.720Z,99988.00
2022-11-10T06:20:50.781Z,99989.00
2022-11-10T06:21:55.113Z,99985.00
2022-11-10T06:22:50.742Z,99989.00
2022-11-10T06:23:50.789Z,99985.00
2022-11-10T06:24:50.758Z,99989.00
2022-11-10T06:25:50.736Z,99995.00
2022-11-10T06:26:50.786Z,99998.00
2022-11-10T06:27:50.750Z,100003.00
2022-11-10T06:28:50.800Z,100009.00
2022-11-10T06:29:50.826Z,100012.00
2022-11-10T06:30:50.781Z,100010.00
2022-11-10T06:31:50.839Z,100014.00
2022-11-10T06:32:50.809Z,100020.00
2022-11-10T06:33:50.844Z,100022.00
2022-11-10T06:34:50.902Z,100026.00
2022-11-10T06:35:50.872Z,100033.00
2022-11-10T06:36:50.935Z,100035.00
2022-11-10T06:37:50.902Z,100040.00
2022-11-10T06:38:50.917Z,100043.00
2022-11-10T06:39:50.983Z,100045.00
2022-11-10T06:40:50.945Z,100048.00
2022-11-10T06:41:51.027Z,100049.00
2022-11-10T06:42:51.033Z,100054.00
2022-11-10T06:43:51.000Z,100050.00
2022-11-10T06:44:51.043Z,100050.00
2022-11-10T06:45:51.058Z,100054.00
2022-11-10T06:46:51.023Z,100053.00
2022-11-10T06:47:51.083Z,100050.00
2022-11-10T06:48:51.125Z,100051.00
2022-11-10T06:49:51.043Z,100050.00
2022-11-10T06:50:51.125Z,100057.00
2022-11-10T06:51:51.208Z,100059.00
2022-11-10T06:52:51.218Z,100059.00
2022-11-10T06:53:51.292Z,100056.00
2022-11-10T06:54:51.283Z,100059.00
2022-11-10T06:55:51.256Z,100060.00
2022-11-10T06:56:51.245Z,100058.00
2022-11-10T06:57:51.240Z,100064.00
2022-11-10T06:58:51.253Z,100068.00
2022-11-10T06:59:51.279Z,100074.00
2022-11-10T07:00:51.368Z,100073.00
2022-11-10T07:01:51.288Z,100079.00
2022-11-10T07:02:51.288Z,100078.00
2022-11-10T07:04:17.497Z,100082.00
2022-11-10T07:04:52.156Z,100080.00
2022-11-10T07:05:52.423Z,100074.00
2022-11-10T07:06:51.402Z,100076.00
2022-11-10T07:07:51.332Z,100072.00
2022-11-10T07:08:51.330Z,100069.00
2022-11-10T07:09:51.337Z,100072.00
2022-11-10T07:10:51.324Z,100074.00
2022-11-10T07:11:51.338Z,100077.00
2022-11-10T07:12:51.350Z,100084.00
2022-11-10T07:13:51.404Z,100089.00
2022-11-10T07:14:51.357Z,100089.00
2022-11-10T07:15:51.343Z,100092.00
2022-11-10T07:16:51.361Z,100095.00
2022-11-10T07:17:51.353Z,100092.00
2022-11-10T07:18:51.337Z,100097.00
2022-11-10T07:19:51.338Z,100099.00
2022-11-10T07:20:51.347Z,100100.00
2022-11-10T07:21:51.440Z,100102.00
2022-11-10T07:22:51.456Z,100103.00
2022-11-10T07:23:51.378Z,100104.00
2022-11-10T07:24:51.424Z,100100.00
2022-11-10T07:25:53.411Z,100098.00
2022-11-10T07:26:51.402Z,100098.00
2022-11-10T07:27:51.390Z,100103.00
2022-11-10T07:28:51.417Z,100105.00
2022-11-10T07:29:51.458Z,100107.00
2022-11-10T07:30:51.407Z,100107.00
2022-11-10T07:31:51.489Z,100106.00
2022-11-10T07:32:51.481Z,100112.00
2022-11-10T07:33:54.485Z,100116.00
2022-11-10T07:34:51.474Z,100111.00
2022-11-10T07:35:51.503Z,100119.00
2022-11-10T07:36:51.471Z,100119.00
2022-11-10T07:37:51.489Z,100118.00
2022-11-10T07:38:51.520Z,100123.00
2022-11-10T07:39:51.588Z,100124.00
2022-11-10T07:40:51.551Z,100130.00
2022-11-10T07:41:52.826Z,100135.00
2022-11-10T07:42:51.575Z,100137.00
2022-11-10T07:43:51.707Z,100140.00
2022-11-10T07:44:51.717Z,100138.00
2022-11-10T07:45:51.714Z,100143.00
2022-11-10T07:46:51.681Z,100142.00
2022-11-10T07:47:51.681Z,100144.00
2022-11-10T07:48:51.744Z,100146.00
2022-11-10T07:49:51.924Z,100147.00
2022-11-10T07:50:51.711Z,100148.00
2022-11-10T07:51:51.726Z,100151.00
2022-11-10T07:52:51.719Z,100150.00
2022-11-10T07:53:51.707Z,100150.00
2022-11-10T07:54:51.690Z,100147.00
2022-11-10T07:55:51.679Z,100153.00
2022-11-10T07:56:51.688Z,100156.00
2022-11-10T07:57:51.660Z,100159.00
2022-11-10T07:58:51.654Z,100159.00
2022-11-10T07:59:52.964Z,100164.00
2022-11-10T08:00:51.651Z,100157.00
2022-11-10T08:01:51.681Z,100161.00
2022-11-10T08:02:51.711Z,100162.00
2022-11-10T08:03:51.700Z,100162.00
2022-11-10T08:04:51.767Z,100163.00
2022-11-10T08:05:51.770Z,100160.00
2022-11-10T08:06:51.909Z,100161.00
2022-11-10T08:07:51.813Z,100162.00
2022-11-10T08:08:51.740Z,100164.00
2022-11-10T08:09:51.783Z,100165.00
2022-11-10T08:10:51.788Z,100173.00
2022-11-10T08:11:51.770Z,100176.00
2022-11-10T08:12:51.768Z,100180.00
2022-11-10T08:13:54.780Z,100182.00
2022-11-10T08:14:51.771Z,100179.00
2022-11-10T08:15:51.842Z,100183.00
2022-11-10T08:16:51.838Z,100178.00
2022-11-10T08:17:51.851Z,100182.00
2022-11-10T08:18:51.835Z,100185.00
2022-11-10T08:19:51.875Z,100188.00
2022-11-10T08:20:51.927Z,100193.00
2022-11-10T08:21:51.900Z,100192.00
2022-11-10T08:22:51.905Z,100199.00
2022-11-10T08:23:51.941Z,100198.00
2022-11-10T08:24:51.916Z,100202.00
2022-11-10T08:25:51.948Z,100210.00
2022-11-10T08:26:51.949Z,100213.00
2022-11-10T08:27:51.960Z,100218.00
2022-11-10T08:28:51.973Z,100212.00
2022-11-10T08:29:51.972Z,100211.00
2022-11-10T08:30:51.975Z,100200.00
2022-11-10T08:31:51.998Z,100205.00
2022-11-10T08:32:52.041Z,100207.00
2022-11-10T08:33:51.978Z,100214.00
2022-11-10T08:34:51.980Z,100211.00
2022-11-10T08:35:51.977Z,100212.00
2022-11-10T08:36:52.009Z,100217.00
2022-11-10T08:37:51.976Z,100215.00
2022-11-10T08:38:51.957Z,100216.00
2022-11-10T08:39:52.009Z,100215.00
2022-11-10T08:40:52.008Z,100208.00
2022-11-10T08:41:51.986Z,100207.00
2022-11-10T08:42:52.007Z,100209.00
2022-11-10T08:43:52.020Z,100214.00
2022-11-10T08:44:52.009Z,100212.00
2022-11-10T08:45:51.989Z,100209.00
2022-11-10T08:46:52.002Z,100210.00
2022-11-10T08:47:52.032Z,100209.00
2022-11-10T08:48:52.114Z,100214.00
2022-11-10T08:49:52.078Z,100207.00
2022-11-10T08:50:52.048Z,100213.00
2022-11-10T08:51:52.084Z,100216.00
2022-11-10T08:52:52.195Z,100220.00
2022-11-10T08:53:52.150Z,100221.00
2022-11-10T08:54:52.136Z,100224.00
2022-11-10T08:55:52.151Z,100221.00
2022-11-10T08:56:52.157Z,100221.00
2022-11-10T08:57:52.168Z,100223.00
2022-11-10T08:58:53.441Z,100224.00
2022-11-10T08:59:52.135Z,100221.00
2022-11-10T09:00:52.182Z,100227.00
2022-11-10T09:01:52.218Z,100229.00
2022-11-10T09:02:52.199Z,100230.00
2022-11-10T09:03:52.240Z,100232.00
2022-11-10T09:04:52.246Z,100231.00
2022-11-10T09:05:57.724Z,100233.00
2022-11-10T09:06:52.312Z,100240.00
2022-11-10T09:07:52.297Z,100237.00
2022-11-10T09:08:52.304Z,100245.00
2022-11-10T09:10:06.605Z,100247.00
2022-11-10T09:10:52.305Z,100246.00
2022-11-10T09:11:52.289Z,100247.00
2022-11-10T09:12:52.270Z,100245.00
2022-11-10T09:13:52.286Z,100249.00
2022-11-10T09:14:52.286Z,100253.00
2022-11-10T09:15:52.271Z,100252.00
2022-11-10T09:16:52.273Z,100255.00
2022-11-10T09:17:52.282Z,100257.00
2022-11-10T09:18:52.267Z,100259.00
2022-11-10T09:19:52.347Z,100263.00
2022-11-10T09:20:52.329Z,100263.00
2022-11-10T09:21:52.325Z,100266.00
2022-11-10T09:22:52.312Z,100269.00
2022-11-10T09:23:52.297Z,100269.00
2022-11-10T09:24:52.427Z,100274.00
2022-11-10T09:25:52.347Z,100274.00
2022-11-10T09:26:52.358Z,100277.00
2022-11-10T09:27:52.363Z,100279.00
2022-11-10T09:28:52.357Z,100281.00
2022-11-10T09:29:52.349Z,100285.00
2022-11-10T09:30:52.381Z,100286.00
2022-11-10T09:31:52.380Z,100288.00
2022-11-10T09:32:52.401Z,100295.00
2022-11-10T09:33:52.402Z,100295.00
2022-11-10T09:34:53.220Z,100300.00
2022-11-10T09:35:52.412Z,100301.00
2022-11-10T09:36:52.390Z,100306.00
2022-11-10T09:37:52.473Z,100309.00
2022-11-10T09:38:52.421Z,100317.00
2022-11-10T09:39:52.408Z,100314.00
2022-11-10T09:40:52.466Z,100312.00
2022-11-10T09:41:52.440Z,100309.00
2022-11-10T09:42:52.448Z,100310.00
2022-11-10T09:43:52.447Z,100313.00
2022-11-10T09:44:52.431Z,100308.00
2022-11-10T09:45:52.442Z,100310.00
2022-11-10T09:46:52.416Z,100313.00
2022-11-10T09:47:59.608Z,100319.00
2022-11-10T09:48:52.471Z,100322.00
2022-11-10T09:49:52.454Z,100323.00
2022-11-10T09:50:52.476Z,100329.00
2022-11-10T09:51:52.489Z,100328.00
2022-11-10T09:52:52.467Z,100326.00
2022-11-10T09:53:52.479Z,100330.00
2022-11-10T09:54:52.461Z,100331.00
2022-11-10T09:55:52.496Z,100334.00
2022-11-10T09:56:52.518Z,100336.00
2022-11-10T09:57:52.465Z,100337.00
2022-11-10T09:58:52.524Z,100331.00
2022-11-10T09:59:52.456Z,100334.00
2022-11-10T10:00:52.583Z,100328.00
2022-11-10T10:01:52.612Z,100332.00
2022-11-10T10:02:52.551Z,100332.00
2022-11-10T10:03:52.561Z,100328.00
2022-11-10T10:04:52.569Z,100330.00
2022-11-10T10:05:52.557Z,100332.00
2022-11-10T10:07:10.065Z,100331.00
2022-11-10T10:07:52.674Z,100328.00
2022-11-10T10:08:52.547Z,100327.00
2022-11-10T10:09:52.537Z,100330.00
2022-11-10T10:10:52.554Z,100325.00
2022-11-10T10:11:52.610Z,100329.00
2022-11-10T10:12:53.240Z,100330.00
2022-11-10T10:13:52.599Z,100329.00
2022-11-10T10:14:52.631Z,100328.00
2022-11-10T10:15:52.596Z,100322.00
2022-11-10T10:16:52.625Z,100318.00
2022-11-10T10:17:52.829Z,100316.00
2022-11-10T10:18:52.650Z,100316.00
2022-11-10T10:19:52.668Z,100320.00
2022-11-10T10:20:52.702Z,100321.00
2022-11-10T10:21:52.668Z,100314.00
2022-11-10T10:22:52.708Z,100320.00
2022-11-10T10:24:11.545Z,100316.00
2022-11-10T10:24:52.729Z,100313.00
2022-11-10T10:25:52.728Z,100314.00
2022-11-10T10:26:52.755Z,100317.00
2022-11-10T10:27:52.758Z,100320.00
2022-11-10T10:28:52.821Z,100317.00
2022-11-10T10:29:52.746Z,100317.00
2022-11-10T10:30:52.776Z,100318.00
2022-11-10T10:31:53.350Z,100315.00
2022-11-10T10:32:52.796Z,100320.00
2022-11-10T10:33:52.764Z,100315.00
2022-11-10T10:34:52.807Z,100320.00
2022-11-10T10:35:52.824Z,100322.00
2022-11-10T10:36:52.889Z,100324.00
2022-11-10T10:37:52.858Z,100325.00
2022-11-10T10:38:52.890Z,100330.00
2022-11-10T10:39:52.922Z,100328.00
2022-11-10T10:40:52.918Z,100327.00
2022-11-10T10:41:53.004Z,100329.00
2022-11-10T10:42:52.987Z,100325.00
2022-11-10T10:43:52.967Z,100323.00
2022-11-10T10:44:53.013Z,100319.00
2022-11-10T10:45:52.985Z,100317.00
2022-11-10T10:46:53.010Z,100323.00
2022-11-10T10:47:52.998Z,100320.00
2022-11-10T10:49:08.267Z,100320.00
2022-11-10T10:49:53.027Z,100319.00
2022-11-10T10:50:53.050Z,100314.00
2022-11-10T10:51:53.088Z,100318.00
2022-11-10T10:52:53.070Z,100320.00
2022-11-10T10:53:53.124Z,100322.00
2022-11-10T10:54:53.145Z,100325.00
2022-11-10T10:55:53.160Z,100325.00
2022-11-10T10:56:53.164Z,100324.00
2022-11-10T10:57:53.145Z,100325.00
2022-11-10T10:58:53.167Z,100329.00
2022-11-10T10:59:53.185Z,100326.00
2022-11-10T11:00:53.254Z,100324.00
2022-11-10T11:01:53.288Z,100318.00
2022-11-10T11:02:53.241Z,100312.00
2022-11-10T11:03:53.281Z,100320.00
2022-11-10T11:04:53.311Z,100313.00
2022-11-10T11:05:53.342Z,100313.00
2022-11-10T11:06:53.423Z,100316.00
2022-11-10T11:07:53.359Z,100312.00
2022-11-10T11:08:58.182Z,100322.00
2022-11-10T11:09:53.357Z,100320.00
2022-11-10T11:10:53.343Z,100320.00
2022-11-10T11:11:53.341Z,100320.00
2022-11-10T11:12:53.369Z,100323.00
2022-11-10T11:13:53.364Z,100325.00
2022-11-10T11:14:53.346Z,100325.00
2022-11-10T11:15:53.331Z,100327.00
2022-11-10T11:16:53.414Z,100326.00
2022-11-10T11:17:53.402Z,100322.00
2022-11-10T11:18:53.402Z,100326.00
2022-11-10T11:19:59.599Z,100328.00
2022-11-10T11:20:53.398Z,100323.00
2022-11-10T11:21:53.397Z,100325.00
2022-11-10T11:22:53.375Z,100322.00
2022-11-10T11:23:53.400Z,100319.00
2022-11-10T11:24:53.421Z,100323.00
2022-11-10T11:25:53.464Z,100323.00
2022-11-10T11:26:53.500Z,100325.00
2022-11-10T11:27:53.471Z,100327.00
2022-11-10T11:28:53.527Z,100327.00
2022-11-10T11:29:53.496Z,100327.00
2022-11-10T11:30:53.521Z,100324.00
2022-11-10T11:31:53.511Z,100324.00
2022-11-10T11:32:53.524Z,100322.00
2022-11-10T11:33:53.502Z,100315.00
2022-11-10T11:34:53.528Z,100315.00
2022-11-10T11:35:53.550Z,100312.00
2022-11-10T11:36:53.591Z,100313.00